Ostatnio dodane

Tytuł Autor Odpowiedzi Last Postikona sortowania Odsłon łącznie Odsłon dzisiaj
Sterownik świateł do samochodu - jak podać sygnały na mikrokontroler? mareks6 22 2014-10-28 17:09 4 409 2 717
Atmega fusebit doctor Łukasz 4 2014-10-07 10:09 10 446 4 018
USBasp problem z programowaniem Eagle 8 2014-10-05 05:49 5 257 2 159
Bascom - Sterowanie wyjściami z impulsatora? Mirix 7 2014-10-01 15:49 4 976 3 012
RFM12B - łatwiejsze niż myślisz EDC 2014-09-15 00:56 6 223 3 739
Przerywacz kierunkowskazów APE 13A - nie działa poprawnie po naprawie Motorpal 2 2014-09-11 13:26 2 713 1 927
Cyfrowy Przedwzmacniacz mirley 102 2014-08-28 21:21 43 379 12 459
Sterownik C.O. z monitoringiem EDC 3 2014-08-27 16:35 3 541 2 259
AVR Odtwarzacz wav demsy1 2 2014-08-16 12:42 2 587 1 788
problem ze wzmacniaczem na Tda 1905 Misiek 6 2014-08-09 20:52 12 442 2 955
Timer+pomiar temperatury marekszy 14 2014-07-19 20:50 2 937 2 001
Przetwornik ADC maro 7 2014-07-16 10:11 3 087 2 010
Mirley.net Uruchomiona mirley 2014-07-16 08:05 3 494 2 228
Przerwanie operacji WAIT bascom barni 1 2014-07-10 14:08 3 024 2 071
Nowy soft przez USB/RS232 czyli BOOTLOADER EDC 13 2014-07-03 08:34 5 902 3 998
Zapis i odczyt do eeprom demsy1 6 2014-06-27 11:35 3 208 2 180
Regulator PWM DC 15A Chester 15 2014-06-25 18:00 5 614 3 380
AVT1460 Chester 2 2014-06-25 17:57 2 513 1 720
Bascom-PWM nanab 88 2014-06-24 05:21 39 323 9 868
Przerwania INT0 i INT1 jacek1987-1987 21 2014-06-22 22:04 4 931 3 138
Zwiększenie zasięgu działania czujnika na fototranzystorze i diodzie IR jacek1987-1987 17 2014-06-17 22:46 5 016 3 405
Big Endian w atmega32 wchpikus 2 2014-06-14 11:57 3 679 2 311
Modyfikacja kierownicy PC MSideWinder FFB (pomysły) Radzioo 5 2014-06-13 18:15 5 938 3 705
termometr_uniwersalny wersja na 2051 kaktus 4 2014-06-07 16:29 4 480 1 829
libs description w Eagle kaktus 1 2014-06-07 16:12 3 631 2 341